createdAt,value
2018-12-30T00:00:41.487Z,20.53
2018-12-30T00:01:41.447Z,20.54
2018-12-30T00:02:41.404Z,20.54
2018-12-30T00:03:41.367Z,20.46
2018-12-30T00:04:41.316Z,20.50
2018-12-30T00:05:41.271Z,20.50
2018-12-30T00:06:41.229Z,20.58
2018-12-30T00:07:41.188Z,20.54
2018-12-30T00:08:41.141Z,20.51
2018-12-30T00:09:41.093Z,20.50
2018-12-30T00:10:41.049Z,20.49
2018-12-30T00:11:41.008Z,20.41
2018-12-30T00:12:40.964Z,20.42
2018-12-30T00:13:40.916Z,20.51
2018-12-30T00:14:40.879Z,20.39
2018-12-30T00:15:40.838Z,20.49
2018-12-30T00:16:40.786Z,20.50
2018-12-30T00:17:40.744Z,20.46
2018-12-30T00:18:40.701Z,20.43
2018-12-30T00:19:42.411Z,20.42
2018-12-30T00:20:40.613Z,20.41
2018-12-30T00:21:40.571Z,20.39
2018-12-30T00:22:40.525Z,20.39
2018-12-30T00:23:40.480Z,20.38
2018-12-30T00:24:40.436Z,20.33
2018-12-30T00:25:40.437Z,20.39
2018-12-30T00:26:40.344Z,20.39
2018-12-30T00:27:40.302Z,20.34
2018-12-30T00:28:40.257Z,20.31
2018-12-30T00:29:40.213Z,20.33
2018-12-30T00:30:40.169Z,20.34
2018-12-30T00:31:40.129Z,20.34
2018-12-30T00:32:40.084Z,20.34
2018-12-30T00:33:40.047Z,20.28
2018-12-30T00:34:39.997Z,20.28
2018-12-30T00:35:39.955Z,20.30
2018-12-30T00:36:39.907Z,20.27
2018-12-30T00:37:39.860Z,20.27
2018-12-30T00:38:39.820Z,20.27
2018-12-30T00:39:39.778Z,20.25
2018-12-30T00:40:39.727Z,20.28
2018-12-30T00:41:39.686Z,20.24
2018-12-30T00:42:39.641Z,20.27
2018-12-30T00:43:39.601Z,20.25
2018-12-30T00:44:39.555Z,20.20
2018-12-30T00:45:39.512Z,20.15
2018-12-30T00:46:39.466Z,20.23
2018-12-30T00:47:39.423Z,20.21
2018-12-30T00:48:39.378Z,20.23
2018-12-30T00:49:39.335Z,20.18
2018-12-30T00:50:39.295Z,20.20
2018-12-30T00:51:39.249Z,20.16
2018-12-30T00:52:39.203Z,20.08
2018-12-30T00:53:39.159Z,20.10
2018-12-30T00:54:39.115Z,20.18
2018-12-30T00:55:39.069Z,20.10
2018-12-30T00:56:39.023Z,20.13
2018-12-30T00:57:38.982Z,20.09
2018-12-30T00:58:38.934Z,20.15
2018-12-30T00:59:38.895Z,20.15
2018-12-30T01:00:38.849Z,20.09
2018-12-30T01:01:38.805Z,20.10
2018-12-30T01:02:38.762Z,20.13
2018-12-30T01:03:38.716Z,20.13
2018-12-30T01:04:38.671Z,20.13
2018-12-30T01:05:38.630Z,20.03
2018-12-30T01:06:38.582Z,20.06
2018-12-30T01:07:38.540Z,20.05
2018-12-30T01:08:38.495Z,20.00
2018-12-30T01:09:38.453Z,20.02
2018-12-30T01:10:38.406Z,20.09
2018-12-30T01:11:38.364Z,20.05
2018-12-30T01:12:38.317Z,20.00
2018-12-30T01:13:38.276Z,20.02
2018-12-30T01:14:38.230Z,20.02
2018-12-30T01:15:38.182Z,19.97
2018-12-30T01:16:38.141Z,19.98
2018-12-30T01:17:38.092Z,20.03
2018-12-30T01:18:38.053Z,19.95
2018-12-30T01:19:38.010Z,19.86
2018-12-30T01:20:37.964Z,19.95
2018-12-30T01:21:37.923Z,19.88
2018-12-30T01:22:37.877Z,19.90
2018-12-30T01:23:37.833Z,19.97
2018-12-30T01:24:37.789Z,19.95
2018-12-30T01:25:37.746Z,19.91
2018-12-30T01:26:37.699Z,19.93
2018-12-30T01:27:37.662Z,19.97
2018-12-30T01:28:37.613Z,19.86
2018-12-30T01:29:37.573Z,19.86
2018-12-30T01:30:37.522Z,19.86
2018-12-30T01:31:37.481Z,19.86
2018-12-30T01:32:37.434Z,19.78
2018-12-30T01:33:37.507Z,19.90
2018-12-30T01:34:37.355Z,19.87
2018-12-30T01:35:37.305Z,19.88
2018-12-30T01:36:37.259Z,19.87
2018-12-30T01:37:37.208Z,19.75
2018-12-30T01:38:37.168Z,19.78
2018-12-30T01:39:37.122Z,19.79
2018-12-30T01:40:37.082Z,19.79
2018-12-30T01:41:37.032Z,19.79
2018-12-30T01:42:36.989Z,19.75
2018-12-30T01:43:36.945Z,19.75
2018-12-30T01:44:36.903Z,19.79
2018-12-30T01:45:36.856Z,19.80
2018-12-30T01:46:36.813Z,19.70
2018-12-30T01:47:36.771Z,19.73
2018-12-30T01:48:36.729Z,19.68
2018-12-30T01:49:36.679Z,19.65
2018-12-30T01:50:36.656Z,19.70
2018-12-30T01:51:36.592Z,19.68
2018-12-30T01:52:36.548Z,19.69
2018-12-30T01:53:36.503Z,19.76
2018-12-30T01:54:36.459Z,19.66
2018-12-30T01:55:36.416Z,19.65
2018-12-30T01:56:36.373Z,19.65
2018-12-30T01:57:36.326Z,19.61
2018-12-30T01:58:36.280Z,19.70
2018-12-30T01:59:36.237Z,19.61
2018-12-30T02:00:36.193Z,19.57
2018-12-30T02:01:36.147Z,19.61
2018-12-30T02:02:36.098Z,19.66
2018-12-30T02:03:36.058Z,19.60
2018-12-30T02:04:36.013Z,19.63
2018-12-30T02:05:35.968Z,19.58
2018-12-30T02:06:35.925Z,19.60
2018-12-30T02:07:35.881Z,19.58
2018-12-30T02:08:35.831Z,19.57
2018-12-30T02:09:35.794Z,19.58
2018-12-30T02:10:35.748Z,19.58
2018-12-30T02:11:35.705Z,19.51
2018-12-30T02:12:35.656Z,19.57
2018-12-30T02:13:35.614Z,19.54
2018-12-30T02:14:35.570Z,19.58
2018-12-30T02:15:35.526Z,19.53
2018-12-30T02:16:35.478Z,19.50
2018-12-30T02:17:35.436Z,19.50
2018-12-30T02:18:35.391Z,19.55
2018-12-30T02:19:35.349Z,19.54
2018-12-30T02:20:35.305Z,19.53
2018-12-30T02:21:41.063Z,19.54
2018-12-30T02:22:35.214Z,19.61
2018-12-30T02:23:35.171Z,19.54
2018-12-30T02:24:35.125Z,19.51
2018-12-30T02:25:35.083Z,19.53
2018-12-30T02:26:35.040Z,19.53
2018-12-30T02:27:34.995Z,19.53
2018-12-30T02:28:34.949Z,19.53
2018-12-30T02:29:34.906Z,19.48
2018-12-30T02:30:34.863Z,19.51
2018-12-30T02:31:34.817Z,19.48
2018-12-30T02:32:34.778Z,19.53
2018-12-30T02:33:34.724Z,19.51
2018-12-30T02:34:34.686Z,19.57
2018-12-30T02:35:34.635Z,19.48
2018-12-30T02:36:34.592Z,19.51
2018-12-30T02:37:34.550Z,19.50
2018-12-30T02:38:34.500Z,19.53
2018-12-30T02:39:34.458Z,19.51
2018-12-30T02:40:34.414Z,19.38
2018-12-30T02:41:34.370Z,19.46
2018-12-30T02:42:34.324Z,19.43
2018-12-30T02:43:34.279Z,19.47
2018-12-30T02:44:34.235Z,19.48
2018-12-30T02:45:34.191Z,19.39
2018-12-30T02:46:34.145Z,19.35
2018-12-30T02:47:34.104Z,19.38
2018-12-30T02:48:34.056Z,19.40
2018-12-30T02:49:34.012Z,19.40
2018-12-30T02:50:33.967Z,19.48
2018-12-30T02:51:33.925Z,19.33
2018-12-30T02:52:33.879Z,19.36
2018-12-30T02:53:33.836Z,19.39
2018-12-30T02:54:33.793Z,19.38
2018-12-30T02:55:33.745Z,19.36
2018-12-30T02:56:33.698Z,19.29
2018-12-30T02:57:33.660Z,19.31
2018-12-30T02:58:33.612Z,19.35
2018-12-30T02:59:33.570Z,19.31
2018-12-30T03:00:33.521Z,19.36
2018-12-30T03:01:33.477Z,19.25
2018-12-30T03:02:33.437Z,19.31
2018-12-30T03:03:33.389Z,19.21
2018-12-30T03:04:33.344Z,19.24
2018-12-30T03:05:33.299Z,19.31
2018-12-30T03:06:33.255Z,19.31
2018-12-30T03:07:33.207Z,19.29
2018-12-30T03:08:33.165Z,19.33
2018-12-30T03:09:33.118Z,19.35
2018-12-30T03:10:33.077Z,19.24
2018-12-30T03:11:33.031Z,19.33
2018-12-30T03:12:32.983Z,19.28
2018-12-30T03:13:32.940Z,19.28
2018-12-30T03:14:32.895Z,19.36
2018-12-30T03:15:32.853Z,19.28
2018-12-30T03:16:32.811Z,19.32
2018-12-30T03:17:32.763Z,19.25
2018-12-30T03:18:32.721Z,19.21
2018-12-30T03:19:32.674Z,19.29
2018-12-30T03:20:32.624Z,19.28
2018-12-30T03:21:32.588Z,19.25
2018-12-30T03:22:32.540Z,19.29
2018-12-30T03:23:32.501Z,19.23
2018-12-30T03:24:32.451Z,19.46
2018-12-30T03:25:32.407Z,19.21
2018-12-30T03:26:32.360Z,19.23
2018-12-30T03:27:32.312Z,19.29
2018-12-30T03:28:32.272Z,19.18
2018-12-30T03:29:32.227Z,19.29
2018-12-30T03:30:32.185Z,19.31
2018-12-30T03:31:32.139Z,19.21
2018-12-30T03:32:32.093Z,19.21
2018-12-30T03:33:32.051Z,19.29
2018-12-30T03:34:32.005Z,19.24
2018-12-30T03:35:31.962Z,19.24
2018-12-30T03:36:31.912Z,19.28
2018-12-30T03:37:31.866Z,19.32
2018-12-30T03:38:31.825Z,19.35
2018-12-30T03:39:31.783Z,19.35
2018-12-30T03:40:31.735Z,19.43
2018-12-30T03:41:31.690Z,19.39
2018-12-30T03:42:31.646Z,19.40
2018-12-30T03:43:31.599Z,19.39
2018-12-30T03:44:31.558Z,19.42
2018-12-30T03:45:31.516Z,19.42
2018-12-30T03:46:31.464Z,19.38
2018-12-30T03:47:31.422Z,19.40
2018-12-30T03:48:31.378Z,19.43
2018-12-30T03:49:31.342Z,19.40
2018-12-30T03:50:31.290Z,19.47
2018-12-30T03:51:31.246Z,19.50
2018-12-30T03:52:31.205Z,19.43
2018-12-30T03:53:31.153Z,19.50
2018-12-30T03:54:31.110Z,19.51
2018-12-30T03:55:31.074Z,19.38
2018-12-30T03:56:31.017Z,19.47
2018-12-30T03:57:30.976Z,19.50
2018-12-30T03:58:30.930Z,19.54
2018-12-30T03:59:30.886Z,19.57
2018-12-30T04:00:30.844Z,19.58
2018-12-30T04:01:30.797Z,19.63
2018-12-30T04:02:30.752Z,19.57
2018-12-30T04:03:30.706Z,19.55
2018-12-30T04:04:30.664Z,19.55
2018-12-30T04:05:30.620Z,19.60
2018-12-30T04:06:30.641Z,19.58
2018-12-30T04:07:30.559Z,19.58
2018-12-30T04:08:30.486Z,19.57
2018-12-30T04:09:30.447Z,19.61
2018-12-30T04:10:30.393Z,19.69
2018-12-30T04:11:30.352Z,19.63
2018-12-30T04:12:30.306Z,19.63
2018-12-30T04:13:30.261Z,19.68
2018-12-30T04:14:30.217Z,19.72
2018-12-30T04:15:30.176Z,19.75
2018-12-30T04:16:30.130Z,19.69
2018-12-30T04:17:30.079Z,19.68
2018-12-30T04:18:30.036Z,19.66
2018-12-30T04:19:29.996Z,19.70
2018-12-30T04:20:29.976Z,19.66
2018-12-30T04:21:29.902Z,19.78
2018-12-30T04:22:29.860Z,19.78
2018-12-30T04:23:29.815Z,19.76
2018-12-30T04:24:29.771Z,19.75
2018-12-30T04:25:29.726Z,19.87
2018-12-30T04:26:29.681Z,19.76
2018-12-30T04:27:29.637Z,19.80
2018-12-30T04:28:29.597Z,19.80
2018-12-30T04:29:29.571Z,19.86
2018-12-30T04:30:29.503Z,19.90
2018-12-30T04:31:29.458Z,19.87
2018-12-30T04:32:29.415Z,19.80
2018-12-30T04:33:29.372Z,19.90
2018-12-30T04:34:29.328Z,19.93
2018-12-30T04:35:29.281Z,19.86
2018-12-30T04:36:29.237Z,19.88
2018-12-30T04:37:29.197Z,19.87
2018-12-30T04:38:29.148Z,19.91
2018-12-30T04:39:29.106Z,19.95
2018-12-30T04:40:29.059Z,19.83
2018-12-30T04:41:29.016Z,19.91
2018-12-30T04:42:28.970Z,19.94
2018-12-30T04:43:28.924Z,19.97
2018-12-30T04:44:28.878Z,19.97
2018-12-30T04:45:28.831Z,20.09
2018-12-30T04:46:28.792Z,20.00
2018-12-30T04:47:28.749Z,20.13
2018-12-30T04:48:28.701Z,20.13
2018-12-30T04:49:28.658Z,20.05
2018-12-30T04:50:28.613Z,20.18
2018-12-30T04:51:28.571Z,20.12
2018-12-30T04:52:28.524Z,20.10
2018-12-30T04:53:28.482Z,20.08
2018-12-30T04:54:28.436Z,20.08
2018-12-30T04:55:28.392Z,20.15
2018-12-30T04:56:28.340Z,20.20
2018-12-30T04:57:28.301Z,20.21
2018-12-30T04:58:28.256Z,20.21
2018-12-30T04:59:28.213Z,20.21
2018-12-30T05:00:28.168Z,20.23
2018-12-30T05:01:28.124Z,20.25
2018-12-30T05:02:28.097Z,20.27
2018-12-30T05:03:28.038Z,20.24
2018-12-30T05:04:27.991Z,20.24
2018-12-30T05:05:27.945Z,20.31
2018-12-30T05:06:27.913Z,20.30
2018-12-30T05:07:27.859Z,20.30
2018-12-30T05:08:27.819Z,20.28
2018-12-30T05:09:27.770Z,20.34
2018-12-30T05:10:27.728Z,20.30
2018-12-30T05:11:27.681Z,20.43
2018-12-30T05:12:27.636Z,20.38
2018-12-30T05:13:27.589Z,20.38
2018-12-30T05:14:27.546Z,20.47
2018-12-30T05:15:27.503Z,20.47
2018-12-30T05:16:27.460Z,20.46
2018-12-30T05:17:27.411Z,20.46
2018-12-30T05:18:27.374Z,20.47
2018-12-30T05:19:27.326Z,20.51
2018-12-30T05:20:27.280Z,20.46
2018-12-30T05:21:27.239Z,20.61
2018-12-30T05:22:33.767Z,20.50
2018-12-30T05:23:27.150Z,20.54
2018-12-30T05:24:27.105Z,20.56
2018-12-30T05:25:27.059Z,20.61
2018-12-30T05:26:27.021Z,20.62
2018-12-30T05:27:26.975Z,20.59
2018-12-30T05:28:26.929Z,20.65
2018-12-30T05:29:26.884Z,20.65
2018-12-30T05:30:26.853Z,20.62
2018-12-30T05:31:26.799Z,20.64
2018-12-30T05:32:26.759Z,20.66
2018-12-30T05:33:26.710Z,20.66
2018-12-30T05:34:26.669Z,20.65
2018-12-30T05:35:26.624Z,20.59
2018-12-30T05:36:26.581Z,20.65
2018-12-30T05:37:26.534Z,20.58
2018-12-30T05:38:26.489Z,20.66
2018-12-30T05:39:26.445Z,20.59
2018-12-30T05:40:26.393Z,20.59
2018-12-30T05:41:26.364Z,20.59
2018-12-30T05:42:26.318Z,20.56
2018-12-30T05:43:26.270Z,20.61
2018-12-30T05:44:26.228Z,20.64
2018-12-30T05:45:26.182Z,20.74
2018-12-30T05:46:26.138Z,20.66
2018-12-30T05:47:26.096Z,20.72
2018-12-30T05:48:26.047Z,20.71
2018-12-30T05:49:26.006Z,20.80
2018-12-30T05:50:25.964Z,20.71
2018-12-30T05:51:25.913Z,20.76
2018-12-30T05:52:25.869Z,20.81
2018-12-30T05:53:25.825Z,20.72
2018-12-30T05:54:25.783Z,20.77
2018-12-30T05:55:25.738Z,20.74
2018-12-30T05:56:25.690Z,20.71
2018-12-30T05:57:25.650Z,20.71
2018-12-30T05:58:25.610Z,20.79
2018-12-30T05:59:25.560Z,20.76
2018-12-30T06:00:25.522Z,20.80
2018-12-30T06:01:25.472Z,20.74
2018-12-30T06:02:25.427Z,20.84
2018-12-30T06:03:25.382Z,20.74
2018-12-30T06:04:25.342Z,20.86
2018-12-30T06:05:25.295Z,20.81
2018-12-30T06:06:25.250Z,20.86
2018-12-30T06:07:25.214Z,20.83
2018-12-30T06:08:25.165Z,20.84
2018-12-30T06:09:25.120Z,20.80
2018-12-30T06:10:25.076Z,20.83
2018-12-30T06:11:25.031Z,20.81
2018-12-30T06:12:24.993Z,20.86
2018-12-30T06:13:24.942Z,20.87
2018-12-30T06:14:24.900Z,20.83
2018-12-30T06:15:24.855Z,20.84
2018-12-30T06:16:24.810Z,20.87
2018-12-30T06:17:24.767Z,20.84
2018-12-30T06:18:24.723Z,20.76
2018-12-30T06:19:24.682Z,20.93
2018-12-30T06:20:24.633Z,20.76
2018-12-30T06:21:24.590Z,20.79
2018-12-30T06:22:24.546Z,20.79
2018-12-30T06:23:24.504Z,20.79
2018-12-30T06:24:24.459Z,20.81
2018-12-30T06:25:24.413Z,20.83
2018-12-30T06:26:24.367Z,20.80
2018-12-30T06:27:24.327Z,20.87
2018-12-30T06:28:24.280Z,20.81
2018-12-30T06:29:24.241Z,20.81
2018-12-30T06:30:24.196Z,20.83
2018-12-30T06:31:24.152Z,20.87
2018-12-30T06:32:24.107Z,20.86
2018-12-30T06:33:24.062Z,20.90
2018-12-30T06:34:24.025Z,20.93
2018-12-30T06:35:23.976Z,20.89
2018-12-30T06:36:23.939Z,20.91
2018-12-30T06:37:23.887Z,20.96
2018-12-30T06:38:23.840Z,20.98
2018-12-30T06:39:23.865Z,20.87
2018-12-30T06:40:23.752Z,21.04
2018-12-30T06:41:23.710Z,20.95
2018-12-30T06:42:23.673Z,20.99
2018-12-30T06:43:23.624Z,21.04
2018-12-30T06:44:23.578Z,20.91
2018-12-30T06:45:23.535Z,21.01
2018-12-30T06:46:23.495Z,20.98
2018-12-30T06:47:23.450Z,20.93
2018-12-30T06:48:23.404Z,21.02
2018-12-30T06:49:23.359Z,20.98
2018-12-30T06:50:23.324Z,20.99
2018-12-30T06:51:23.274Z,21.02
2018-12-30T06:52:23.231Z,21.02
2018-12-30T06:53:23.185Z,21.01
2018-12-30T06:54:23.148Z,21.04
2018-12-30T06:55:23.098Z,21.05
2018-12-30T06:56:23.049Z,21.04
2018-12-30T06:57:23.009Z,21.02
2018-12-30T06:58:22.972Z,21.04
2018-12-30T06:59:22.921Z,21.11
2018-12-30T07:00:22.883Z,21.04
2018-12-30T07:01:22.830Z,21.06
2018-12-30T07:02:22.798Z,21.05
2018-12-30T07:03:22.783Z,21.05
2018-12-30T07:04:22.708Z,21.13
2018-12-30T07:05:22.658Z,21.05
2018-12-30T07:06:22.609Z,21.08
2018-12-30T07:07:22.575Z,21.13
2018-12-30T07:08:22.529Z,21.06
2018-12-30T07:09:22.484Z,21.02
2018-12-30T07:10:22.441Z,21.06
2018-12-30T07:11:22.399Z,21.08
2018-12-30T07:12:22.352Z,21.08
2018-12-30T07:13:22.310Z,21.13
2018-12-30T07:14:22.278Z,21.17
2018-12-30T07:15:22.222Z,21.13
2018-12-30T07:16:22.178Z,21.14
2018-12-30T07:17:22.131Z,21.20
2018-12-30T07:18:22.094Z,21.14
2018-12-30T07:19:22.043Z,21.19
2018-12-30T07:20:22.003Z,21.20
2018-12-30T07:21:21.959Z,21.11
2018-12-30T07:22:21.918Z,21.19
2018-12-30T07:23:21.871Z,21.21
2018-12-30T07:24:21.827Z,21.09
2018-12-30T07:25:21.783Z,21.24
2018-12-30T07:26:21.765Z,21.20
2018-12-30T07:27:21.696Z,21.20
2018-12-30T07:28:21.651Z,21.24
2018-12-30T07:29:21.604Z,21.20
2018-12-30T07:30:21.562Z,21.17
2018-12-30T07:31:21.519Z,21.14
2018-12-30T07:32:21.474Z,21.16
2018-12-30T07:33:23.098Z,21.17
2018-12-30T07:34:21.404Z,21.16
2018-12-30T07:35:21.343Z,21.16
2018-12-30T07:36:21.301Z,21.19
2018-12-30T07:37:21.256Z,21.29
2018-12-30T07:38:21.210Z,21.19
2018-12-30T07:39:21.170Z,21.29
2018-12-30T07:40:21.123Z,21.24
2018-12-30T07:41:21.082Z,21.27
2018-12-30T07:42:21.039Z,21.20
2018-12-30T07:43:20.996Z,21.38
2018-12-30T07:44:20.948Z,21.21
2018-12-30T07:45:20.904Z,21.27
2018-12-30T07:46:20.865Z,21.35
2018-12-30T07:47:20.819Z,21.32
2018-12-30T07:48:20.775Z,21.24
2018-12-30T07:49:20.735Z,21.27
2018-12-30T07:50:20.692Z,21.29
2018-12-30T07:51:20.643Z,21.36
2018-12-30T07:52:20.598Z,21.23
2018-12-30T07:53:20.555Z,21.21
2018-12-30T07:54:20.517Z,21.24
2018-12-30T07:55:20.469Z,21.30
2018-12-30T07:56:20.435Z,21.32
2018-12-30T07:57:20.430Z,21.26
2018-12-30T07:58:20.338Z,21.26
2018-12-30T07:59:20.292Z,21.24
2018-12-30T08:00:20.255Z,21.32
2018-12-30T08:01:20.206Z,21.32
2018-12-30T08:02:20.158Z,21.39
2018-12-30T08:03:20.118Z,21.29
2018-12-30T08:04:20.067Z,21.34
2018-12-30T08:05:20.032Z,21.34
2018-12-30T08:06:19.990Z,21.23
2018-12-30T08:07:19.944Z,21.34
2018-12-30T08:08:19.903Z,21.34
2018-12-30T08:09:19.855Z,21.39
2018-12-30T08:10:19.812Z,21.32
2018-12-30T08:11:19.770Z,21.35
2018-12-30T08:12:19.721Z,21.34
2018-12-30T08:13:19.681Z,21.34
2018-12-30T08:14:19.680Z,21.34
2018-12-30T08:15:19.592Z,21.36
2018-12-30T08:16:19.548Z,21.32
2018-12-30T08:17:19.506Z,21.35
2018-12-30T08:18:19.463Z,21.41
2018-12-30T08:19:19.420Z,21.30
2018-12-30T08:20:19.374Z,21.35
2018-12-30T08:21:19.421Z,21.39
2018-12-30T08:22:19.293Z,21.35
2018-12-30T08:23:21.702Z,21.35
2018-12-30T08:24:19.200Z,21.32
2018-12-30T08:25:19.155Z,21.35
2018-12-30T08:26:19.112Z,21.27
2018-12-30T08:27:19.068Z,21.36
2018-12-30T08:28:25.058Z,21.36
2018-12-30T08:29:18.981Z,21.35
2018-12-30T08:30:18.939Z,21.38
2018-12-30T08:31:18.894Z,21.39
2018-12-30T08:32:18.844Z,21.30
2018-12-30T08:33:18.947Z,21.36
2018-12-30T08:34:18.763Z,21.39
2018-12-30T08:35:18.717Z,21.32
2018-12-30T08:36:18.824Z,21.38
2018-12-30T08:37:18.631Z,21.42
2018-12-30T08:38:18.588Z,21.41
2018-12-30T08:39:18.544Z,21.44
2018-12-30T08:40:18.505Z,21.44
2018-12-30T08:41:18.455Z,21.44
2018-12-30T08:42:18.412Z,21.36
2018-12-30T08:43:18.366Z,21.46
2018-12-30T08:44:18.325Z,21.42
2018-12-30T08:45:18.282Z,21.46
2018-12-30T08:46:18.236Z,21.44
2018-12-30T08:47:18.196Z,21.45
2018-12-30T08:48:18.151Z,21.48
2018-12-30T08:49:18.108Z,21.48
2018-12-30T08:50:18.064Z,21.44
2018-12-30T08:51:18.020Z,21.46
2018-12-30T08:52:17.975Z,21.48
2018-12-30T08:53:17.933Z,21.51
2018-12-30T08:54:17.892Z,21.46
2018-12-30T08:55:17.846Z,21.51
2018-12-30T08:56:17.797Z,21.53
2018-12-30T08:57:17.764Z,21.44
2018-12-30T08:58:17.724Z,21.51
2018-12-30T08:59:17.671Z,21.48
2018-12-30T09:00:17.626Z,21.39
2018-12-30T09:01:17.625Z,21.51
2018-12-30T09:02:17.547Z,21.45
2018-12-30T09:03:17.501Z,21.50
2018-12-30T09:04:17.461Z,21.59
2018-12-30T09:05:17.413Z,21.45
2018-12-30T09:06:17.367Z,21.45
2018-12-30T09:07:17.321Z,21.59
2018-12-30T09:08:17.275Z,21.48
2018-12-30T09:09:17.240Z,21.54
2018-12-30T09:10:17.192Z,21.54
2018-12-30T09:11:17.145Z,21.51
2018-12-30T09:12:17.099Z,21.56
2018-12-30T09:13:17.130Z,21.56
2018-12-30T09:14:17.013Z,21.56
2018-12-30T09:15:16.980Z,21.50
2018-12-30T09:16:16.924Z,21.54
2018-12-30T09:17:18.351Z,21.53
2018-12-30T09:18:16.839Z,21.63
2018-12-30T09:19:16.798Z,21.54
2018-12-30T09:20:16.753Z,21.56
2018-12-30T09:21:16.709Z,21.64
2018-12-30T09:22:16.725Z,21.57
2018-12-30T09:23:16.621Z,21.53
2018-12-30T09:24:16.579Z,21.63
2018-12-30T09:25:16.536Z,21.61
2018-12-30T09:26:16.491Z,21.46
2018-12-30T09:27:16.519Z,21.57
2018-12-30T09:28:16.409Z,21.54
2018-12-30T09:29:16.358Z,21.64
2018-12-30T09:30:16.317Z,21.57
2018-12-30T09:31:16.271Z,21.54
2018-12-30T09:32:16.225Z,21.57
2018-12-30T09:33:16.185Z,21.56
2018-12-30T09:34:16.147Z,21.59
2018-12-30T09:35:16.096Z,21.60
2018-12-30T09:36:16.056Z,21.61
2018-12-30T09:37:16.010Z,21.63
2018-12-30T09:38:15.977Z,21.59
2018-12-30T09:39:15.924Z,21.60
2018-12-30T09:40:15.883Z,21.66
2018-12-30T09:41:15.833Z,21.64
2018-12-30T09:42:15.794Z,21.61
2018-12-30T09:43:15.751Z,21.67
2018-12-30T09:44:15.708Z,21.64
2018-12-30T09:45:15.661Z,21.60
2018-12-30T09:46:15.622Z,21.67
2018-12-30T09:47:15.574Z,21.69
2018-12-30T09:48:15.532Z,21.69
2018-12-30T09:49:15.487Z,21.72
2018-12-30T09:50:15.452Z,21.69
2018-12-30T09:51:15.400Z,21.75
2018-12-30T09:52:15.453Z,21.67
2018-12-30T09:53:15.312Z,21.69
2018-12-30T09:54:15.270Z,21.71
2018-12-30T09:55:15.225Z,21.67
2018-12-30T09:56:15.182Z,21.74
2018-12-30T09:57:15.138Z,21.60
2018-12-30T09:58:15.096Z,21.71
2018-12-30T09:59:15.053Z,21.67
2018-12-30T10:00:15.010Z,21.71
2018-12-30T10:01:14.963Z,21.76
2018-12-30T10:02:14.922Z,21.71
2018-12-30T10:03:14.875Z,21.72
2018-12-30T10:04:14.834Z,21.79
2018-12-30T10:05:14.787Z,21.74
2018-12-30T10:06:14.748Z,21.67
2018-12-30T10:07:14.705Z,21.78
2018-12-30T10:08:14.659Z,21.81
2018-12-30T10:09:14.617Z,21.71
2018-12-30T10:10:14.574Z,21.76
2018-12-30T10:11:14.526Z,21.79
2018-12-30T10:12:14.487Z,21.76
2018-12-30T10:13:14.442Z,21.85
2018-12-30T10:14:14.397Z,21.83
2018-12-30T10:15:14.356Z,21.83
2018-12-30T10:16:14.362Z,21.81
2018-12-30T10:17:14.270Z,21.81
2018-12-30T10:18:14.225Z,21.82
2018-12-30T10:19:14.188Z,21.74
2018-12-30T10:20:14.142Z,21.82
2018-12-30T10:21:14.097Z,21.78
2018-12-30T10:22:14.055Z,21.90
2018-12-30T10:23:14.009Z,21.79
2018-12-30T10:24:13.966Z,21.97
2018-12-30T10:25:13.922Z,21.82
2018-12-30T10:26:13.878Z,21.85
2018-12-30T10:27:13.842Z,21.90
2018-12-30T10:28:13.788Z,21.94
2018-12-30T10:29:13.746Z,21.95
2018-12-30T10:30:13.703Z,21.95
2018-12-30T10:31:13.659Z,21.92
2018-12-30T10:32:13.615Z,21.95
2018-12-30T10:33:13.575Z,21.92
2018-12-30T10:34:13.527Z,21.97
2018-12-30T10:35:13.491Z,21.95
2018-12-30T10:36:13.442Z,21.92
2018-12-30T10:37:13.396Z,21.94
2018-12-30T10:38:13.355Z,21.95
2018-12-30T10:39:13.308Z,21.90
2018-12-30T10:40:13.267Z,21.97
2018-12-30T10:41:13.222Z,21.99
2018-12-30T10:42:13.184Z,21.98
2018-12-30T10:43:13.134Z,22.01
2018-12-30T10:44:13.096Z,21.94
2018-12-30T10:45:13.050Z,22.02
2018-12-30T10:46:13.006Z,22.01
2018-12-30T10:47:12.965Z,21.95
2018-12-30T10:48:12.920Z,22.04
2018-12-30T10:49:12.872Z,22.02
2018-12-30T10:50:12.833Z,21.98
2018-12-30T10:51:12.792Z,21.90
2018-12-30T10:52:12.746Z,21.99
2018-12-30T10:53:12.696Z,21.98
2018-12-30T10:54:12.664Z,22.01
2018-12-30T10:55:12.616Z,21.98
2018-12-30T10:56:12.570Z,22.02
2018-12-30T10:57:12.533Z,21.98
2018-12-30T10:58:12.486Z,22.01
2018-12-30T10:59:12.443Z,21.97
2018-12-30T11:00:12.398Z,22.04
2018-12-30T11:01:12.354Z,22.04
2018-12-30T11:02:12.310Z,21.98
2018-12-30T11:03:12.266Z,22.02
2018-12-30T11:04:12.226Z,22.02
2018-12-30T11:05:12.183Z,22.04
2018-12-30T11:06:12.143Z,22.07
2018-12-30T11:07:12.095Z,22.06
2018-12-30T11:08:12.057Z,22.04
2018-12-30T11:09:12.009Z,22.02
2018-12-30T11:10:11.971Z,22.06
2018-12-30T11:11:11.922Z,22.10
2018-12-30T11:12:11.903Z,22.07
2018-12-30T11:13:11.833Z,22.04
2018-12-30T11:14:11.791Z,22.10
2018-12-30T11:15:11.747Z,22.12
2018-12-30T11:16:11.704Z,22.07
2018-12-30T11:17:11.662Z,22.10
2018-12-30T11:18:11.817Z,22.13
2018-12-30T11:19:11.575Z,22.14
2018-12-30T11:20:11.531Z,22.16
2018-12-30T11:21:11.486Z,22.07
2018-12-30T11:22:11.444Z,22.17
2018-12-30T11:23:11.397Z,22.20
2018-12-30T11:24:11.357Z,22.16
2018-12-30T11:25:11.320Z,22.25
2018-12-30T11:26:11.271Z,22.17
2018-12-30T11:27:11.229Z,22.22
2018-12-30T11:28:11.184Z,22.13
2018-12-30T11:29:11.143Z,22.28
2018-12-30T11:30:11.097Z,22.17
2018-12-30T11:31:11.055Z,22.20
2018-12-30T11:32:11.010Z,22.19
2018-12-30T11:33:10.968Z,22.25
2018-12-30T11:34:10.927Z,22.16
2018-12-30T11:35:10.882Z,22.31
2018-12-30T11:36:10.834Z,22.23
2018-12-30T11:37:10.796Z,22.20
2018-12-30T11:38:10.750Z,22.19
2018-12-30T11:39:10.713Z,22.27
2018-12-30T11:40:10.665Z,22.17
2018-12-30T11:41:10.620Z,22.22
2018-12-30T11:42:10.578Z,22.17
2018-12-30T11:43:10.536Z,22.25
2018-12-30T11:44:10.494Z,22.29
2018-12-30T11:45:10.450Z,22.23
2018-12-30T11:46:10.405Z,22.28
2018-12-30T11:47:10.366Z,22.27
2018-12-30T11:48:10.377Z,22.28
2018-12-30T11:49:10.272Z,22.35
2018-12-30T11:50:10.236Z,22.34
2018-12-30T11:51:10.192Z,22.31
2018-12-30T11:52:10.153Z,22.37
2018-12-30T11:53:10.104Z,22.35
2018-12-30T11:54:16.421Z,22.38
2018-12-30T11:55:10.017Z,22.32
2018-12-30T11:56:09.976Z,22.31
2018-12-30T11:57:09.930Z,22.28
2018-12-30T11:58:09.896Z,22.29
2018-12-30T11:59:09.849Z,22.31
2018-12-30T12:00:09.808Z,22.28
2018-12-30T12:01:09.756Z,22.34
2018-12-30T12:02:09.714Z,22.35
2018-12-30T12:03:09.671Z,22.35
2018-12-30T12:04:09.624Z,22.28
2018-12-30T12:05:09.583Z,22.32
2018-12-30T12:06:09.538Z,22.34
2018-12-30T12:07:09.527Z,22.34
2018-12-30T12:08:09.454Z,22.35
2018-12-30T12:09:09.414Z,22.28
2018-12-30T12:10:09.368Z,22.31
2018-12-30T12:11:09.327Z,22.35
2018-12-30T12:12:09.281Z,22.28
2018-12-30T12:13:09.240Z,22.32
2018-12-30T12:14:09.197Z,22.38
2018-12-30T12:15:09.153Z,22.38
2018-12-30T12:16:09.109Z,22.29
2018-12-30T12:17:09.066Z,22.32
2018-12-30T12:18:09.023Z,22.29
2018-12-30T12:19:08.987Z,22.34
2018-12-30T12:20:08.937Z,22.29
2018-12-30T12:21:08.904Z,22.41
2018-12-30T12:22:08.852Z,22.35
2018-12-30T12:23:08.809Z,22.32
2018-12-30T12:24:08.764Z,22.35
2018-12-30T12:25:08.731Z,22.34
2018-12-30T12:26:08.677Z,22.35
2018-12-30T12:27:08.634Z,22.31
2018-12-30T12:28:08.589Z,22.41
2018-12-30T12:29:08.550Z,22.32
2018-12-30T12:30:08.505Z,22.32
2018-12-30T12:31:08.463Z,22.43
2018-12-30T12:32:08.419Z,22.37
2018-12-30T12:33:08.373Z,22.37
2018-12-30T12:34:08.334Z,22.39
2018-12-30T12:35:08.289Z,22.32
2018-12-30T12:36:08.271Z,22.31
2018-12-30T12:37:08.204Z,22.28
2018-12-30T12:38:08.168Z,22.41
2018-12-30T12:39:08.115Z,22.35
2018-12-30T12:40:08.075Z,22.43
2018-12-30T12:41:08.030Z,22.35
2018-12-30T12:42:07.989Z,22.46
2018-12-30T12:43:07.943Z,22.39
2018-12-30T12:44:07.902Z,22.49
2018-12-30T12:45:07.864Z,22.38
2018-12-30T12:46:07.816Z,22.46
2018-12-30T12:47:07.770Z,22.46
2018-12-30T12:48:07.729Z,22.39
2018-12-30T12:49:07.683Z,22.39
2018-12-30T12:50:07.643Z,22.41
2018-12-30T12:51:07.600Z,22.41
2018-12-30T12:52:07.555Z,22.43